Time;durP1;ratioP1;P1;durP2;ratioP2;P2;SDS_P1;SDS_P2;PMS_P1;PMS_P2;Temp;Humidity;BMP_temperature;BMP_pressure;BME280_temperature;BME280_humidity;BME280_pressure;Samples;Min_cycle;Max_cycle;Signal;HPM_P1;HPM_P2
2023/07/11 00:01:53;;;;;;;5.77;4.17;;;;;;;;;;5120504;28;20564;-63
2023/07/11 00:04:19;;;;;;;10.03;4.40;;;;;;;;;;5111526;27;20461;-63
2023/07/11 00:06:45;;;;;;;5.10;3.83;;;;;;;;;;5111934;28;20485;-62
2023/07/11 00:09:12;;;;;;;4.70;3.40;;;;;;;;;;5121152;28;20482;-63
2023/07/11 00:11:38;;;;;;;9.13;4.63;;;;;;;;;;5120333;27;20439;-62
2023/07/11 00:14:06;;;;;;;6.10;4.60;;;;;;;;;;5120882;28;20507;-63
2023/07/11 00:16:33;;;;;;;5.80;4.07;;;;;;;;;;5120583;27;20468;-63
2023/07/11 00:19:00;;;;;;;5.10;4.10;;;;;;;;;;5120820;28;20458;-63
2023/07/11 00:21:27;;;;;;;8.23;4.57;;;;;;;;;;5120785;28;20466;-63
2023/07/11 00:24:03;;;;;;;5.77;4.40;;;;;;;;;;5120411;28;20481;-63
2023/07/11 00:26:29;;;;;;;5.03;3.67;;;;;;;;;;5120431;27;20457;-63
2023/07/11 00:28:56;;;;;;;10.37;4.70;;;;;;;;;;5119906;28;20481;-63
2023/07/11 00:31:23;;;;;;;6.30;4.27;;;;;;;;;;5120615;28;20470;-64
2023/07/11 00:33:50;;;;;;;5.80;4.23;;;;;;;;;;5124008;27;20438;-64
2023/07/11 00:36:16;;;;;;;8.33;4.70;;;;;;;;;;5119967;28;20518;-63
2023/07/11 00:38:43;;;;;;;6.27;4.00;;;;;;;;;;5120094;28;20486;-65
2023/07/11 00:41:09;;;;;;;10.07;4.80;;;;;;;;;;5120559;28;20993;-64
2023/07/11 00:43:35;;;;;;;8.80;3.83;;;;;;;;;;5120210;27;20480;-64
2023/07/11 00:46:04;;;;;;;9.83;4.53;;;;;;;;;;5120440;28;21728;-63
2023/07/11 00:48:33;;;;;;;6.60;4.23;;;;;;;;;;5119725;28;20469;-63
2023/07/11 00:51:00;;;;;;;5.50;4.10;;;;;;;;;;5120146;27;20444;-63
2023/07/11 00:53:27;;;;;;;5.47;4.03;;;;;;;;;;5120098;28;20516;-64
2023/07/11 00:55:54;;;;;;;5.73;3.80;;;;;;;;;;5120266;28;20481;-63
2023/07/11 00:58:21;;;;;;;7.77;4.80;;;;;;;;;;5119440;28;20529;-63
2023/07/11 01:00:48;;;;;;;6.80;4.07;;;;;;;;;;5119606;28;20544;-63
2023/07/11 01:03:14;;;;;;;8.70;4.43;;;;;;;;;;5120069;27;20466;-64
2023/07/11 01:05:42;;;;;;;4.53;3.83;;;;;;;;;;5118822;28;20478;-64
2023/07/11 01:08:09;;;;;;;4.90;3.70;;;;;;;;;;5119112;28;20514;-65
2023/07/11 01:10:35;;;;;;;7.00;3.90;;;;;;;;;;5119407;28;20485;-64
2023/07/11 01:13:03;;;;;;;10.13;4.17;;;;;;;;;;5116811;28;20541;-64
2023/07/11 01:15:29;;;;;;;6.60;3.80;;;;;;;;;;5119351;28;20484;-64
2023/07/11 01:17:56;;;;;;;5.47;3.83;;;;;;;;;;5117937;28;20446;-64
2023/07/11 01:20:23;;;;;;;8.10;4.10;;;;;;;;;;5118660;28;20470;-64
2023/07/11 01:22:52;;;;;;;6.80;4.20;;;;;;;;;;5119373;28;20481;-65
2023/07/11 01:25:19;;;;;;;8.43;4.20;;;;;;;;;;5119277;28;20453;-64
2023/07/11 01:27:46;;;;;;;5.80;4.40;;;;;;;;;;5118597;28;20518;-64
2023/07/11 01:30:14;;;;;;;6.30;4.03;;;;;;;;;;5119179;28;20540;-64
2023/07/11 01:32:40;;;;;;;6.30;4.00;;;;;;;;;;5117279;28;21059;-63
2023/07/11 01:35:07;;;;;;;9.10;3.80;;;;;;;;;;5115917;28;20482;-65
2023/07/11 01:37:33;;;;;;;5.67;3.50;;;;;;;;;;5119282;28;20521;-66
2023/07/11 01:40:01;;;;;;;6.37;4.17;;;;;;;;;;5119255;28;20547;-63
2023/07/11 01:42:28;;;;;;;6.30;4.20;;;;;;;;;;5116512;28;20514;-63
2023/07/11 01:44:54;;;;;;;7.17;4.60;;;;;;;;;;5119532;28;20882;-63
2023/07/11 01:47:21;;;;;;;7.47;4.20;;;;;;;;;;5118258;28;20526;-63
2023/07/11 01:49:47;;;;;;;8.30;4.37;;;;;;;;;;5116655;28;20493;-63
2023/07/11 01:52:15;;;;;;;7.00;3.57;;;;;;;;;;5119476;28;20438;-63
2023/07/11 01:54:41;;;;;;;4.20;3.53;;;;;;;;;;5113020;28;20482;-63
2023/07/11 01:57:09;;;;;;;6.40;3.53;;;;;;;;;;5118069;28;20637;-63
2023/07/11 01:59:35;;;;;;;7.03;4.07;;;;;;;;;;5119436;28;20549;-63
2023/07/11 02:02:02;;;;;;;9.57;3.90;;;;;;;;;;5122669;27;20493;-63
2023/07/11 02:04:28;;;;;;;6.03;3.93;;;;;;;;;;5123196;28;20505;-63
2023/07/11 02:06:55;;;;;;;5.73;3.60;;;;;;;;;;5122749;27;20449;-63
2023/07/11 02:09:21;;;;;;;5.57;3.53;;;;;;;;;;5130963;27;20521;-63
2023/07/11 02:11:48;;;;;;;9.07;4.23;;;;;;;;;;5122701;28;20473;-64
2023/07/11 02:14:18;;;;;;;8.43;4.93;;;;;;;;;;5123217;28;20474;-63
2023/07/11 02:16:45;;;;;;;7.23;4.67;;;;;;;;;;5123339;28;20454;-64
2023/07/11 02:19:12;;;;;;;5.30;3.63;;;;;;;;;;5118884;27;20884;-65
2023/07/11 02:21:38;;;;;;;5.30;3.70;;;;;;;;;;5122735;28;20879;-64
2023/07/11 02:24:04;;;;;;;7.17;3.90;;;;;;;;;;5123079;27;20656;-64
2023/07/11 02:26:31;;;;;;;6.43;3.63;;;;;;;;;;5122952;28;20211;-64
2023/07/11 02:28:57;;;;;;;4.63;3.70;;;;;;;;;;5118663;27;20485;-64
2023/07/11 02:31:25;;;;;;;3.43;3.10;;;;;;;;;;5123274;28;20477;-64
2023/07/11 02:33:54;;;;;;;6.30;4.50;;;;;;;;;;5122860;28;20446;-64
2023/07/11 02:36:20;;;;;;;6.30;3.60;;;;;;;;;;5122299;28;20943;-64
2023/07/11 02:38:46;;;;;;;5.00;3.60;;;;;;;;;;5122338;27;20457;-65
2023/07/11 02:41:13;;;;;;;5.33;4.07;;;;;;;;;;5128480;27;20516;-65
2023/07/11 02:43:39;;;;;;;6.67;3.43;;;;;;;;;;5121774;28;20954;-65
2023/07/11 02:46:06;;;;;;;4.53;3.23;;;;;;;;;;5122723;28;20489;-65
2023/07/11 02:48:33;;;;;;;8.57;4.87;;;;;;;;;;5118048;27;20548;-66
2023/07/11 02:51:00;;;;;;;7.70;3.40;;;;;;;;;;5122849;28;20442;-64
2023/07/11 02:53:26;;;;;;;6.83;3.40;;;;;;;;;;5123114;28;20477;-64
2023/07/11 02:55:53;;;;;;;5.63;3.20;;;;;;;;;;5122264;28;20505;-64
2023/07/11 02:58:19;;;;;;;6.03;3.23;;;;;;;;;;5118061;27;20497;-64
2023/07/11 03:00:47;;;;;;;5.10;3.40;;;;;;;;;;5121196;28;20536;-64
2023/07/11 03:03:13;;;;;;;8.37;4.67;;;;;;;;;;5122888;28;20892;-64
2023/07/11 03:05:43;;;;;;;7.60;4.40;;;;;;;;;;5121264;28;20986;-64
2023/07/11 03:08:09;;;;;;;4.20;3.43;;;;;;;;;;5122324;27;20542;-65
2023/07/11 03:10:36;;;;;;;5.10;4.10;;;;;;;;;;5121882;28;20506;-65
2023/07/11 03:13:02;;;;;;;6.10;4.00;;;;;;;;;;5115607;28;20546;-65
2023/07/11 03:15:28;;;;;;;7.43;4.80;;;;;;;;;;5121909;28;20506;-64
2023/07/11 03:17:55;;;;;;;7.27;4.27;;;;;;;;;;5122033;27;20508;-64
2023/07/11 03:20:21;;;;;;;8.30;4.17;;;;;;;;;;5121954;28;20518;-64
2023/07/11 03:22:49;;;;;;;10.53;4.70;;;;;;;;;;5121955;28;20755;-64
2023/07/11 03:25:15;;;;;;;6.23;4.03;;;;;;;;;;5122538;28;20472;-64
2023/07/11 03:27:42;;;;;;;12.63;4.70;;;;;;;;;;5121741;27;20515;-63
2023/07/11 03:30:08;;;;;;;9.63;4.23;;;;;;;;;;5126868;27;20552;-63
2023/07/11 03:32:35;;;;;;;8.10;4.87;;;;;;;;;;5121597;28;20474;-63
2023/07/11 03:35:01;;;;;;;8.37;5.50;;;;;;;;;;5121864;28;20529;-64
2023/07/11 03:37:27;;;;;;;10.10;4.70;;;;;;;;;;5121672;28;20450;-64
2023/07/11 03:39:55;;;;;;;8.80;4.60;;;;;;;;;;5121881;27;20553;-63
2023/07/11 03:42:21;;;;;;;13.77;4.53;;;;;;;;;;5121109;28;20502;-63
2023/07/11 03:44:48;;;;;;;7.20;4.70;;;;;;;;;;5121058;28;20564;-64
2023/07/11 03:47:14;;;;;;;8.33;4.10;;;;;;;;;;5121176;28;20454;-64
2023/07/11 03:49:41;;;;;;;10.00;5.00;;;;;;;;;;5121879;27;20478;-64
2023/07/11 03:52:07;;;;;;;9.00;4.47;;;;;;;;;;5127221;27;20456;-63
2023/07/11 03:54:33;;;;;;;15.40;4.67;;;;;;;;;;5118721;28;20480;-64
2023/07/11 03:57:01;;;;;;;8.73;4.47;;;;;;;;;;5115495;28;20534;-64
2023/07/11 03:59:27;;;;;;;11.20;4.13;;;;;;;;;;5130238;27;20485;-64
2023/07/11 04:01:54;;;;;;;8.90;4.60;;;;;;;;;;5120854;28;20496;-63
2023/07/11 04:04:20;;;;;;;9.23;4.13;;;;;;;;;;5120731;28;20501;-64
2023/07/11 04:06:47;;;;;;;6.73;3.53;;;;;;;;;;5116059;28;21141;-64
2023/07/11 04:09:13;;;;;;;8.83;3.60;;;;;;;;;;5119749;27;20450;-65
2023/07/11 04:11:39;;;;;;;9.40;3.83;;;;;;;;;;5119248;28;20478;-64
2023/07/11 04:14:10;;;;;;;11.80;3.97;;;;;;;;;;5119095;28;20472;-64
2023/07/11 04:16:36;;;;;;;6.03;3.23;;;;;;;;;;5119288;28;20497;-65
2023/07/11 04:19:03;;;;;;;5.33;3.00;;;;;;;;;;5128732;27;20955;-64
2023/07/11 04:21:29;;;;;;;9.57;3.40;;;;;;;;;;5123902;27;21045;-65
2023/07/11 04:23:55;;;;;;;6.00;3.43;;;;;;;;;;5118758;28;20470;-64
2023/07/11 04:26:22;;;;;;;7.90;3.30;;;;;;;;;;5120054;28;20474;-63
2023/07/11 04:28:48;;;;;;;11.43;3.33;;;;;;;;;;5119460;28;20624;-65
2023/07/11 04:31:16;;;;;;;5.00;2.53;;;;;;;;;;5112647;28;20538;-67
2023/07/11 04:33:42;;;;;;;5.07;2.70;;;;;;;;;;5113024;28;20961;-65
2023/07/11 04:36:10;;;;;;;10.80;3.17;;;;;;;;;;5118708;28;20886;-66
2023/07/11 04:38:36;;;;;;;5.90;3.30;;;;;;;;;;5118265;27;20469;-63
2023/07/11 04:41:03;;;;;;;9.03;3.20;;;;;;;;;;5114129;28;20485;-64
2023/07/11 04:43:30;;;;;;;6.40;3.07;;;;;;;;;;5119794;28;21115;-64
2023/07/11 04:45:57;;;;;;;8.50;3.00;;;;;;;;;;5117288;28;20460;-63
2023/07/11 04:48:24;;;;;;;4.43;2.33;;;;;;;;;;5118944;27;20497;-63
2023/07/11 04:50:56;;;;;;;10.30;2.87;;;;;;;;;;5108898;28;20450;-63
2023/07/11 04:53:22;;;;;;;7.17;2.77;;;;;;;;;;5117411;28;20474;-63
2023/07/11 04:55:54;;;;;;;6.30;2.97;;;;;;;;;;5119536;28;20521;-63
2023/07/11 04:58:21;;;;;;;9.03;2.70;;;;;;;;;;5118589;27;21061;-63
2023/07/11 05:00:47;;;;;;;7.30;2.80;;;;;;;;;;5118230;28;20470;-63
2023/07/11 05:03:13;;;;;;;6.07;2.40;;;;;;;;;;5110274;28;20578;-64
2023/07/11 05:05:41;;;;;;;4.77;2.40;;;;;;;;;;5118370;28;20514;-64
2023/07/11 05:08:07;;;;;;;9.97;3.13;;;;;;;;;;5118384;27;20571;-64
2023/07/11 05:10:34;;;;;;;5.70;2.10;;;;;;;;;;5114909;28;21013;-63
2023/07/11 05:13:00;;;;;;;8.37;2.97;;;;;;;;;;5118042;28;20529;-63
2023/07/11 05:15:26;;;;;;;4.93;2.67;;;;;;;;;;5117347;28;20449;-64
2023/07/11 05:17:53;;;;;;;10.57;2.77;;;;;;;;;;5116152;28;20458;-64
2023/07/11 05:20:19;;;;;;;8.17;2.53;;;;;;;;;;5117838;28;20477;-64
2023/07/11 05:22:47;;;;;;;5.83;2.70;;;;;;;;;;5116758;28;20485;-64
2023/07/11 05:25:13;;;;;;;11.20;2.60;;;;;;;;;;5115724;28;20569;-64
2023/07/11 05:27:40;;;;;;;5.83;2.43;;;;;;;;;;5112926;28;20461;-64
2023/07/11 05:30:08;;;;;;;4.60;2.50;;;;;;;;;;5117388;28;20940;-64
2023/07/11 05:32:34;;;;;;;8.90;2.70;;;;;;;;;;5117723;28;20462;-64
2023/07/11 05:35:00;;;;;;;10.10;2.47;;;;;;;;;;5108939;28;20488;-63
2023/07/11 05:37:27;;;;;;;3.37;1.73;;;;;;;;;;5110763;28;20470;-64
2023/07/11 05:39:54;;;;;;;5.20;2.40;;;;;;;;;;5116267;28;20509;-64
2023/07/11 05:42:21;;;;;;;6.17;2.37;;;;;;;;;;5116161;28;20536;-64
2023/07/11 05:44:47;;;;;;;4.70;2.60;;;;;;;;;;5109577;28;20481;-65
2023/07/11 05:47:14;;;;;;;6.37;2.00;;;;;;;;;;5113747;28;20473;-64
2023/07/11 05:49:40;;;;;;;6.63;2.40;;;;;;;;;;5117612;28;20974;-65
2023/07/11 05:52:07;;;;;;;10.90;2.73;;;;;;;;;;5117009;28;20466;-64
2023/07/11 05:54:33;;;;;;;5.40;1.97;;;;;;;;;;5116866;28;20489;-64
2023/07/11 05:57:02;;;;;;;8.30;2.47;;;;;;;;;;5117548;28;20450;-64
2023/07/11 05:59:29;;;;;;;10.33;2.47;;;;;;;;;;5118307;28;20458;-64
2023/07/11 06:01:55;;;;;;;8.80;2.60;;;;;;;;;;5117502;28;20495;-64
2023/07/11 06:04:22;;;;;;;6.43;2.43;;;;;;;;;;5116233;28;20442;-64
2023/07/11 06:06:49;;;;;;;6.00;2.60;;;;;;;;;;5116755;28;20458;-64
2023/07/11 06:09:16;;;;;;;4.70;2.23;;;;;;;;;;5129306;28;20483;-64
2023/07/11 06:11:43;;;;;;;2.63;1.87;;;;;;;;;;5121271;28;20457;-63
2023/07/11 06:14:11;;;;;;;4.90;2.73;;;;;;;;;;5115943;28;20474;-64
2023/07/11 06:16:38;;;;;;;7.77;2.33;;;;;;;;;;5117607;28;20497;-64
2023/07/11 06:19:05;;;;;;;5.63;2.20;;;;;;;;;;5117955;28;20800;-64
2023/07/11 06:21:31;;;;;;;4.43;2.13;;;;;;;;;;5113812;28;20989;-64
2023/07/11 06:23:58;;;;;;;12.10;2.50;;;;;;;;;;5116809;28;20545;-63
2023/07/11 06:26:24;;;;;;;11.13;2.40;;;;;;;;;;5121711;28;20489;-63
2023/07/11 06:28:51;;;;;;;6.90;2.43;;;;;;;;;;5116052;28;20923;-63
2023/07/11 06:31:18;;;;;;;5.37;2.30;;;;;;;;;;5117307;28;20465;-62
2023/07/11 06:33:47;;;;;;;5.17;1.90;;;;;;;;;;5117018;28;20923;-63
2023/07/11 06:36:13;;;;;;;4.13;2.47;;;;;;;;;;5102238;28;20715;-63
2023/07/11 06:38:39;;;;;;;6.57;2.07;;;;;;;;;;5115661;28;20509;-63
2023/07/11 06:41:06;;;;;;;3.70;2.03;;;;;;;;;;5111231;28;20904;-63
2023/07/11 06:43:32;;;;;;;5.30;2.00;;;;;;;;;;5116482;28;20521;-63
2023/07/11 06:46:00;;;;;;;5.97;2.50;;;;;;;;;;5116420;28;20470;-64
2023/07/11 06:48:28;;;;;;;7.40;2.70;;;;;;;;;;5124819;27;20453;-63
2023/07/11 06:50:56;;;;;;;4.43;2.40;;;;;;;;;;5122148;28;20525;-63
2023/07/11 06:53:23;;;;;;;3.30;2.10;;;;;;;;;;5122121;28;20474;-64
2023/07/11 06:55:50;;;;;;;5.70;2.07;;;;;;;;;;5121967;28;20446;-63
2023/07/11 06:58:17;;;;;;;4.40;2.23;;;;;;;;;;5120840;28;20824;-64
2023/07/11 07:00:44;;;;;;;3.33;1.90;;;;;;;;;;5122744;27;20962;-64
2023/07/11 07:03:11;;;;;;;5.77;2.30;;;;;;;;;;5133749;27;20509;-63
2023/07/11 07:05:39;;;;;;;3.97;2.10;;;;;;;;;;5120347;28;20438;-64
2023/07/11 07:08:05;;;;;;;5.70;2.33;;;;;;;;;;5121263;27;20545;-64
2023/07/11 07:10:32;;;;;;;6.27;2.40;;;;;;;;;;5121550;28;20488;-64
2023/07/11 07:12:58;;;;;;;9.20;2.40;;;;;;;;;;5120285;28;20525;-64
2023/07/11 07:15:25;;;;;;;4.87;2.30;;;;;;;;;;5122110;28;20520;-64
2023/07/11 07:17:51;;;;;;;5.07;2.17;;;;;;;;;;5121300;27;20486;-64
2023/07/11 07:20:18;;;;;;;5.27;3.07;;;;;;;;;;5121201;28;20541;-64
2023/07/11 07:22:46;;;;;;;4.10;2.40;;;;;;;;;;5121166;28;20482;-64
2023/07/11 07:25:12;;;;;;;4.50;3.10;;;;;;;;;;5121552;28;20434;-64
2023/07/11 07:27:39;;;;;;;4.30;2.70;;;;;;;;;;5119720;28;20478;-63
2023/07/11 07:30:06;;;;;;;2.63;1.93;;;;;;;;;;5121147;28;20446;-64
2023/07/11 07:32:33;;;;;;;4.00;2.20;;;;;;;;;;5117900;27;20474;-64
2023/07/11 07:34:59;;;;;;;2.60;2.37;;;;;;;;;;5121570;27;20449;-64
2023/07/11 07:37:26;;;;;;;3.03;2.67;;;;;;;;;;5115872;28;20504;-63
2023/07/11 07:39:53;;;;;;;3.97;2.40;;;;;;;;;;5120707;28;20560;-64
2023/07/11 07:42:20;;;;;;;4.90;2.50;;;;;;;;;;5113385;28;20446;-63
2023/07/11 07:44:47;;;;;;;4.57;3.10;;;;;;;;;;5120913;28;20552;-63
2023/07/11 07:47:13;;;;;;;4.17;2.63;;;;;;;;;;5125162;27;20488;-63
2023/07/11 07:49:40;;;;;;;4.77;3.27;;;;;;;;;;5122220;27;20803;-64
2023/07/11 07:52:07;;;;;;;4.77;2.40;;;;;;;;;;5117514;28;20460;-63
2023/07/11 07:54:33;;;;;;;8.67;2.73;;;;;;;;;;5116433;28;20466;-63
2023/07/11 07:57:01;;;;;;;3.97;2.60;;;;;;;;;;5120409;27;20576;-63
2023/07/11 07:59:27;;;;;;;4.93;2.50;;;;;;;;;;5120413;28;20514;-63
2023/07/11 08:01:54;;;;;;;5.00;2.30;;;;;;;;;;5121293;28;20481;-64
2023/07/11 08:04:20;;;;;;;3.33;2.53;;;;;;;;;;5119697;28;20485;-64
2023/07/11 08:06:47;;;;;;;4.73;2.60;;;;;;;;;;5120197;28;20442;-64
2023/07/11 08:09:13;;;;;;;3.23;2.20;;;;;;;;;;5120619;28;20465;-63
2023/07/11 08:11:40;;;;;;;4.70;2.57;;;;;;;;;;5120480;28;20468;-63
2023/07/11 08:14:07;;;;;;;5.37;2.90;;;;;;;;;;5119886;28;20476;-63
2023/07/11 08:16:34;;;;;;;4.23;2.90;;;;;;;;;;5118600;27;20458;-64
2023/07/11 08:19:01;;;;;;;2.83;2.53;;;;;;;;;;5119415;28;20473;-64
2023/07/11 08:21:27;;;;;;;4.10;2.90;;;;;;;;;;5120454;28;20454;-64
2023/07/11 08:23:54;;;;;;;6.73;2.60;;;;;;;;;;5120306;28;20581;-64
2023/07/11 08:26:21;;;;;;;3.80;2.70;;;;;;;;;;5119701;28;20662;-64
2023/07/11 08:28:47;;;;;;;3.73;2.67;;;;;;;;;;5118464;28;20900;-63
2023/07/11 08:31:15;;;;;;;3.93;2.60;;;;;;;;;;5130036;27;20484;-64
2023/07/11 08:33:41;;;;;;;3.67;2.53;;;;;;;;;;5119314;28;20485;-63
2023/07/11 08:36:08;;;;;;;8.67;3.50;;;;;;;;;;5119250;28;20442;-64
2023/07/11 08:38:34;;;;;;;3.70;2.80;;;;;;;;;;5119953;28;20481;-64
2023/07/11 08:41:10;;;;;;;5.43;2.43;;;;;;;;;;5119587;28;20486;-64
2023/07/11 08:43:36;;;;;;;6.83;2.87;;;;;;;;;;5119286;28;20569;-64
2023/07/11 08:46:05;;;;;;;3.77;1.97;;;;;;;;;;5120314;27;20481;-64
2023/07/11 08:48:34;;;;;;;5.60;3.23;;;;;;;;;;5119083;28;20955;-65
2023/07/11 08:51:05;;;;;;;5.83;3.30;;;;;;;;;;5119861;28;20533;-64
2023/07/11 08:53:34;;;;;;;3.73;2.73;;;;;;;;;;5113318;28;20485;-64
2023/07/11 08:56:08;;;;;;;5.00;2.63;;;;;;;;;;5119228;28;20544;-64
2023/07/11 08:58:36;;;;;;;4.10;2.80;;;;;;;;;;5119179;28;20460;-64
2023/07/11 09:01:05;;;;;;;3.53;2.80;;;;;;;;;;5119653;28;20517;-64
2023/07/11 09:03:32;;;;;;;5.43;2.53;;;;;;;;;;5118740;28;20776;-64
2023/07/11 09:06:03;;;;;;;4.50;3.00;;;;;;;;;;5118679;28;20502;-64
2023/07/11 09:08:30;;;;;;;3.80;2.60;;;;;;;;;;5119277;28;20875;-64
2023/07/11 09:11:00;;;;;;;5.67;2.73;;;;;;;;;;5118449;28;20438;-64
2023/07/11 09:13:45;;;;;;;4.43;2.70;;;;;;;;;;5119449;27;20454;-64
2023/07/11 09:16:19;;;;;;;4.00;2.60;;;;;;;;;;5119379;28;20453;-64
2023/07/11 09:18:47;;;;;;;9.13;3.13;;;;;;;;;;5118994;28;20468;-64
2023/07/11 09:21:20;;;;;;;3.20;2.40;;;;;;;;;;5119507;28;20430;-64
2023/07/11 09:23:53;;;;;;;5.77;3.43;;;;;;;;;;5119394;28;20864;-64
2023/07/11 09:26:23;;;;;;;5.10;2.90;;;;;;;;;;5118153;28;20509;-64
2023/07/11 09:28:50;;;;;;;5.97;2.70;;;;;;;;;;5107563;28;20470;-65
2023/07/11 09:31:18;;;;;;;4.20;2.63;;;;;;;;;;5119740;28;20446;-65
2023/07/11 09:33:47;;;;;;;4.20;2.57;;;;;;;;;;5117887;28;20502;-65
2023/07/11 09:36:20;;;;;;;4.20;2.70;;;;;;;;;;5118520;28;20477;-65
2023/07/11 09:38:49;;;;;;;4.33;2.80;;;;;;;;;;5118830;28;20519;-65
2023/07/11 09:41:17;;;;;;;2.90;2.60;;;;;;;;;;5118876;28;20442;-65
2023/07/11 09:43:44;;;;;;;4.60;2.93;;;;;;;;;;5118127;28;20530;-62
2023/07/11 09:46:12;;;;;;;4.60;2.83;;;;;;;;;;5119194;28;20446;-62
2023/07/11 09:48:38;;;;;;;4.20;2.73;;;;;;;;;;5118185;28;20485;-63
2023/07/11 09:51:12;;;;;;;4.50;3.30;;;;;;;;;;5119695;28;20466;-63
2023/07/11 09:53:43;;;;;;;4.37;2.63;;;;;;;;;;5115421;28;20547;-63
2023/07/11 09:56:11;;;;;;;6.27;2.83;;;;;;;;;;5118450;28;20530;-63
2023/07/11 09:58:37;;;;;;;5.40;3.07;;;;;;;;;;5118489;28;20482;-64
2023/07/11 10:01:04;;;;;;;4.70;2.50;;;;;;;;;;5118998;28;20984;-63
2023/07/11 10:03:34;;;;;;;4.70;2.87;;;;;;;;;;5118560;28;20569;-63
2023/07/11 10:06:01;;;;;;;5.10;2.70;;;;;;;;;;5118186;28;20450;-63
2023/07/11 10:08:28;;;;;;;4.03;3.27;;;;;;;;;;5118861;28;20485;-63
2023/07/11 10:11:01;;;;;;;6.23;2.70;;;;;;;;;;5118996;28;20465;-63
2023/07/11 10:13:28;;;;;;;3.10;2.70;;;;;;;;;;5122252;28;20453;-63
2023/07/11 10:15:55;;;;;;;5.23;3.00;;;;;;;;;;5119333;28;20445;-63
2023/07/11 10:18:23;;;;;;;3.07;2.60;;;;;;;;;;5118058;28;20841;-64
2023/07/11 10:20:52;;;;;;;3.13;2.73;;;;;;;;;;5119213;28;20474;-64
2023/07/11 10:23:21;;;;;;;4.43;3.10;;;;;;;;;;5122009;28;20515;-64
2023/07/11 10:25:52;;;;;;;4.60;3.53;;;;;;;;;;5109772;28;20561;-64
2023/07/11 10:28:24;;;;;;;3.33;2.90;;;;;;;;;;5119229;28;20460;-64
2023/07/11 10:30:51;;;;;;;4.17;2.80;;;;;;;;;;5115736;28;20469;-64
2023/07/11 10:33:19;;;;;;;3.63;3.20;;;;;;;;;;5119345;28;20461;-64
2023/07/11 10:35:47;;;;;;;5.20;3.17;;;;;;;;;;5120984;27;20453;-64
2023/07/11 10:38:17;;;;;;;3.97;3.07;;;;;;;;;;5122594;28;20465;-64
2023/07/11 10:40:45;;;;;;;3.70;3.00;;;;;;;;;;5122016;28;20492;-64
2023/07/11 10:43:21;;;;;;;6.60;3.20;;;;;;;;;;5116226;28;20493;-63
2023/07/11 10:45:50;;;;;;;3.70;3.13;;;;;;;;;;5121914;28;20477;-64
2023/07/11 10:48:25;;;;;;;3.30;2.80;;;;;;;;;;5111517;28;20466;-64
2023/07/11 10:50:54;;;;;;;4.30;3.20;;;;;;;;;;5125445;27;20469;-64
2023/07/11 10:53:22;;;;;;;3.93;3.30;;;;;;;;;;5117760;28;20507;-64
2023/07/11 10:55:52;;;;;;;4.03;3.47;;;;;;;;;;5119381;27;20447;-64
2023/07/11 10:58:21;;;;;;;4.30;3.37;;;;;;;;;;5114796;27;20482;-64
2023/07/11 11:00:52;;;;;;;3.67;3.17;;;;;;;;;;5117991;28;20528;-63
2023/07/11 11:03:26;;;;;;;5.40;2.97;;;;;;;;;;5115166;27;21017;-63
2023/07/11 11:05:57;;;;;;;4.90;3.70;;;;;;;;;;5118801;28;20472;-64
2023/07/11 11:08:26;;;;;;;5.13;3.20;;;;;;;;;;5120870;28;20454;-63
2023/07/11 11:10:56;;;;;;;6.00;3.50;;;;;;;;;;5115110;28;20447;-64
2023/07/11 11:13:25;;;;;;;6.10;3.37;;;;;;;;;;5116709;28;20465;-64
2023/07/11 11:16:00;;;;;;;6.10;3.50;;;;;;;;;;5121945;28;20484;-64
2023/07/11 11:18:40;;;;;;;4.00;2.93;;;;;;;;;;5121138;27;20507;-64
2023/07/11 11:21:09;;;;;;;4.90;3.60;;;;;;;;;;5123227;27;20469;-64
2023/07/11 11:23:44;;;;;;;6.77;3.80;;;;;;;;;;5120752;28;20438;-64
2023/07/11 11:26:18;;;;;;;4.03;3.33;;;;;;;;;;5121703;28;20541;-63
2023/07/11 11:28:50;;;;;;;4.80;4.03;;;;;;;;;;5120766;28;20483;-64
2023/07/11 11:31:21;;;;;;;4.60;3.30;;;;;;;;;;5113971;27;20524;-64
2023/07/11 11:33:52;;;;;;;3.87;2.70;;;;;;;;;;5111639;28;20442;-64
2023/07/11 11:36:23;;;;;;;4.50;3.27;;;;;;;;;;5120800;28;20464;-64
2023/07/11 11:38:55;;;;;;;5.93;3.50;;;;;;;;;;5120818;28;20484;-64
2023/07/11 11:41:27;;;;;;;5.33;3.40;;;;;;;;;;5109841;28;20450;-64
2023/07/11 11:43:54;;;;;;;5.00;3.07;;;;;;;;;;5119235;28;20517;-64
2023/07/11 11:46:21;;;;;;;5.00;3.20;;;;;;;;;;5124983;27;20452;-64
2023/07/11 11:48:49;;;;;;;4.10;3.10;;;;;;;;;;5120482;27;20531;-64
2023/07/11 11:51:17;;;;;;;4.73;3.67;;;;;;;;;;5114264;28;20447;-63
2023/07/11 11:53:45;;;;;;;5.50;3.30;;;;;;;;;;5125721;27;20477;-64
2023/07/11 11:56:13;;;;;;;5.80;3.57;;;;;;;;;;5126782;27;20900;-64
2023/07/11 11:58:46;;;;;;;5.53;3.27;;;;;;;;;;5119981;28;20497;-64
2023/07/11 12:01:27;;;;;;;6.13;3.50;;;;;;;;;;5123337;27;20516;-64
2023/07/11 12:03:55;;;;;;;4.50;3.37;;;;;;;;;;5120202;28;20510;-64
2023/07/11 12:06:27;;;;;;;5.90;2.97;;;;;;;;;;5119966;28;20489;-64
2023/07/11 12:09:22;;;;;;;4.30;3.30;;;;;;;;;;5120253;28;20501;-64
2023/07/11 12:12:04;;;;;;;4.40;3.20;;;;;;;;;;5112051;28;20509;-64
2023/07/11 12:14:35;;;;;;;9.07;3.60;;;;;;;;;;5117002;27;20446;-64
2023/07/11 12:17:02;;;;;;;3.40;2.83;;;;;;;;;;5119885;28;20508;-64
2023/07/11 12:19:31;;;;;;;6.00;3.83;;;;;;;;;;5119936;28;20450;-64
2023/07/11 12:21:58;;;;;;;5.03;3.60;;;;;;;;;;5117894;28;20446;-64
2023/07/11 12:24:27;;;;;;;4.37;3.63;;;;;;;;;;5114628;28;20545;-64
2023/07/11 12:26:53;;;;;;;4.77;3.80;;;;;;;;;;5120028;28;20457;-63
2023/07/11 12:29:31;;;;;;;6.77;3.97;;;;;;;;;;5129706;27;20869;-64
2023/07/11 12:32:12;;;;;;;5.53;3.47;;;;;;;;;;5121228;27;20445;-64
2023/07/11 12:34:44;;;;;;;5.67;3.67;;;;;;;;;;5114673;28;20538;-64
2023/07/11 12:37:12;;;;;;;7.33;3.87;;;;;;;;;;5119790;28;20541;-64
2023/07/11 12:39:44;;;;;;;5.70;3.50;;;;;;;;;;5118658;28;20599;-64
2023/07/11 12:42:17;;;;;;;4.70;3.60;;;;;;;;;;5120069;28;20466;-64
2023/07/11 12:44:45;;;;;;;6.17;3.37;;;;;;;;;;5120488;27;21053;-64
2023/07/11 12:47:14;;;;;;;4.17;3.53;;;;;;;;;;5115958;27;20470;-64
2023/07/11 12:49:41;;;;;;;4.97;3.10;;;;;;;;;;5114759;28;20500;-64
2023/07/11 12:52:12;;;;;;;5.90;3.60;;;;;;;;;;5111504;28;20457;-63
2023/07/11 12:54:39;;;;;;;4.27;3.77;;;;;;;;;;5110865;28;20473;-63
2023/07/11 12:57:11;;;;;;;8.97;3.10;;;;;;;;;;5116988;28;20450;-63
2023/07/11 12:59:39;;;;;;;6.50;3.60;;;;;;;;;;5118733;28;20489;-64
2023/07/11 13:02:06;;;;;;;4.10;3.13;;;;;;;;;;5118036;28;20443;-64
2023/07/11 13:04:34;;;;;;;5.40;3.43;;;;;;;;;;5114925;27;20492;-64
2023/07/11 13:07:01;;;;;;;5.10;2.70;;;;;;;;;;5117704;28;20462;-63
2023/07/11 13:09:28;;;;;;;6.27;2.97;;;;;;;;;;5119059;28;20597;-63
2023/07/11 13:11:55;;;;;;;4.30;3.33;;;;;;;;;;5119113;27;20457;-63
2023/07/11 13:14:22;;;;;;;6.83;3.13;;;;;;;;;;5118107;28;20458;-63
2023/07/11 13:16:49;;;;;;;4.50;3.33;;;;;;;;;;5117901;27;20445;-64
2023/07/11 13:19:16;;;;;;;3.97;3.43;;;;;;;;;;5114011;28;20450;-64
2023/07/11 13:21:44;;;;;;;6.43;3.30;;;;;;;;;;5115618;27;20450;-64
2023/07/11 13:24:12;;;;;;;21.20;3.90;;;;;;;;;;5118308;28;20541;-63
2023/07/11 13:26:40;;;;;;;5.83;3.33;;;;;;;;;;5115743;27;20493;-63
2023/07/11 13:29:07;;;;;;;5.30;3.23;;;;;;;;;;5117492;28;20454;-64
2023/07/11 13:31:35;;;;;;;6.73;3.37;;;;;;;;;;5112436;28;20473;-63
2023/07/11 13:34:02;;;;;;;4.40;3.33;;;;;;;;;;5118421;28;20477;-65
2023/07/11 13:36:29;;;;;;;4.13;3.20;;;;;;;;;;5118891;28;20485;-64
2023/07/11 13:38:57;;;;;;;6.67;3.40;;;;;;;;;;5117996;28;20589;-64
2023/07/11 13:41:27;;;;;;;4.57;3.17;;;;;;;;;;5119777;28;20938;-64
2023/07/11 13:43:56;;;;;;;4.20;3.37;;;;;;;;;;5117994;28;20554;-64
2023/07/11 13:46:23;;;;;;;6.60;3.10;;;;;;;;;;5116784;28;20506;-64
2023/07/11 13:48:50;;;;;;;4.00;3.30;;;;;;;;;;5114181;28;20464;-64
2023/07/11 13:51:19;;;;;;;6.30;3.30;;;;;;;;;;5119117;28;20822;-64
2023/07/11 13:53:46;;;;;;;7.37;3.47;;;;;;;;;;5118270;28;20457;-64
2023/07/11 13:56:13;;;;;;;4.07;3.37;;;;;;;;;;5120934;28;20470;-64
2023/07/11 13:58:39;;;;;;;5.70;3.50;;;;;;;;;;5122679;28;20469;-64
2023/07/11 14:01:10;;;;;;;5.87;3.73;;;;;;;;;;5122976;28;20488;-64
2023/07/11 14:03:36;;;;;;;6.00;4.00;;;;;;;;;;5122660;28;20441;-64
2023/07/11 14:06:03;;;;;;;6.93;3.63;;;;;;;;;;5121741;28;20497;-64
2023/07/11 14:08:30;;;;;;;4.67;3.43;;;;;;;;;;5122149;27;20454;-64
2023/07/11 14:10:56;;;;;;;5.00;3.57;;;;;;;;;;5120027;27;20500;-64
2023/07/11 14:13:23;;;;;;;6.80;3.40;;;;;;;;;;5122716;28;20464;-64
2023/07/11 14:15:50;;;;;;;6.40;4.03;;;;;;;;;;5122132;28;20808;-64
2023/07/11 14:18:18;;;;;;;5.73;3.60;;;;;;;;;;5122864;28;20446;-63
2023/07/11 14:20:44;;;;;;;5.70;3.90;;;;;;;;;;5122951;28;20481;-64
2023/07/11 14:23:13;;;;;;;4.27;3.47;;;;;;;;;;5120336;27;20450;-64
2023/07/11 14:25:39;;;;;;;4.30;3.20;;;;;;;;;;5122053;28;20478;-64
2023/07/11 14:28:06;;;;;;;6.90;3.67;;;;;;;;;;5121911;28;20450;-64
2023/07/11 14:30:32;;;;;;;6.03;3.67;;;;;;;;;;5123972;27;20557;-64
2023/07/11 14:33:01;;;;;;;4.67;3.20;;;;;;;;;;5122196;28;20446;-64
2023/07/11 14:35:29;;;;;;;4.37;3.77;;;;;;;;;;5122362;28;20887;-64
2023/07/11 14:37:55;;;;;;;5.10;3.90;;;;;;;;;;5121715;28;20482;-64
2023/07/11 14:40:23;;;;;;;8.67;3.90;;;;;;;;;;5126701;27;20604;-64
2023/07/11 14:42:50;;;;;;;4.50;3.80;;;;;;;;;;5121884;28;20533;-64
2023/07/11 14:45:18;;;;;;;4.43;3.97;;;;;;;;;;5122091;28;20509;-64
2023/07/11 14:47:45;;;;;;;6.53;3.60;;;;;;;;;;5122333;28;20697;-64